Time;durP1;ratioP1;P1;durP2;ratioP2;P2;SDS_P1;SDS_P2;PMS_P1;PMS_P2;Temp;Humidity;BMP_temperature;BMP_pressure;BME280_temperature;BME280_humidity;BME280_pressure;Samples;Min_cycle;Max_cycle;Signal;HPM_P1;HPM_P2
2022/01/28 00:00:53;;;;;;;3.95;3.65;;;16.70;59.30;;;;;;4955793;28;20047;-21
2022/01/28 00:03:19;;;;;;;3.20;3.00;;;16.70;59.40;;;;;;4956317;28;20047;-22
2022/01/28 00:05:44;;;;;;;3.45;3.25;;;16.70;59.30;;;;;;4955802;28;20054;-21
2022/01/28 00:08:10;;;;;;;3.22;3.03;;;16.70;59.30;;;;;;4956051;28;20508;-21
2022/01/28 00:10:39;;;;;;;3.50;3.20;;;16.80;59.20;;;;;;4955512;28;20039;-20
2022/01/28 00:21:04;;;;;;;3.40;3.20;;;16.70;59.20;;;;;;4956704;28;20043;-20
2022/01/28 00:39:45;;;;;;;3.45;3.25;;;16.70;59.30;;;;;;4955891;28;20515;-20
2022/01/28 00:42:11;;;;;;;3.58;3.38;;;16.60;59.30;;;;;;4955124;28;20058;-20
2022/01/28 00:44:36;;;;;;;3.20;3.00;;;16.70;59.30;;;;;;4955303;28;20138;-21
2022/01/28 00:47:02;;;;;;;3.13;2.92;;;16.70;59.40;;;;;;4954943;28;20039;-21
2022/01/28 00:49:28;;;;;;;2.95;2.75;;;16.60;59.30;;;;;;4956430;28;20051;-20
2022/01/28 00:51:54;;;;;;;3.55;3.08;;;16.60;59.30;;;;;;4952964;28;20058;-20
2022/01/28 00:54:19;;;;;;;2.97;2.75;;;16.60;59.30;;;;;;4951916;28;20044;-20
2022/01/28 00:56:45;;;;;;;2.78;2.58;;;16.60;59.30;;;;;;4955624;28;20424;-20
2022/01/28 00:59:11;;;;;;;2.58;2.47;;;16.60;59.40;;;;;;4952238;28;20071;-21
2022/01/28 01:01:37;;;;;;;2.88;2.67;;;16.60;59.40;;;;;;4955775;28;20591;-21
2022/01/28 01:04:03;;;;;;;3.20;3.00;;;16.60;59.40;;;;;;4953055;28;20500;-21
2022/01/28 01:06:29;;;;;;;3.30;3.10;;;16.60;59.40;;;;;;4955932;28;20126;-20
2022/01/28 01:08:55;;;;;;;3.47;3.17;;;16.60;59.40;;;;;;4954631;28;20147;-22
2022/01/28 01:11:22;;;;;;;2.83;2.63;;;16.60;59.50;;;;;;4956521;28;20587;-21
2022/01/28 01:13:49;;;;;;;2.58;2.42;;;16.60;59.50;;;;;;4957161;28;20389;-20
2022/01/28 01:16:18;;;;;;;3.10;2.90;;;16.60;59.50;;;;;;4957086;28;20059;-21
2022/01/28 01:18:53;;;;;;;3.03;2.83;;;16.50;59.40;;;;;;4956130;28;20111;-20
2022/01/28 01:21:25;;;;;;;2.90;2.80;;;16.50;59.50;;;;;;4957189;28;20186;-23
2022/01/28 01:23:54;;;;;;;2.92;2.75;;;16.50;59.50;;;;;;4956438;28;20048;-21
2022/01/28 01:26:26;;;;;;;2.88;2.63;;;16.50;59.50;;;;;;4955197;28;20057;-20
2022/01/28 01:28:52;;;;;;;2.38;2.28;;;16.60;59.50;;;;;;4956824;28;20134;-20
2022/01/28 01:31:19;;;;;;;2.95;2.75;;;16.60;59.50;;;;;;4955751;28;20105;-21
2022/01/28 01:33:51;;;;;;;3.30;3.10;;;16.60;59.50;;;;;;4956703;28;20043;-21
2022/01/28 01:36:17;;;;;;;2.80;2.70;;;16.60;59.50;;;;;;4956187;28;20054;-21
2022/01/28 01:38:43;;;;;;;2.90;2.70;;;16.50;59.50;;;;;;4956768;28;20094;-21
2022/01/28 01:41:18;;;;;;;2.67;2.58;;;16.50;59.50;;;;;;4956266;28;20046;-21
2022/01/28 01:52:03;;;;;;;2.50;2.40;;;16.50;59.60;;;;;;4957018;28;20130;-20
2022/01/28 01:54:30;;;;;;;2.75;2.60;;;16.50;59.50;;;;;;4952133;28;20504;-20
2022/01/28 01:56:55;;;;;;;2.75;2.58;;;16.50;59.50;;;;;;4955516;28;20530;-21
2022/01/28 01:59:21;;;;;;;3.00;2.80;;;16.50;59.60;;;;;;4954230;28;20502;-20
2022/01/28 02:01:47;;;;;;;2.72;2.60;;;16.50;59.60;;;;;;4956277;28;20141;-20
2022/01/28 02:04:12;;;;;;;2.58;2.47;;;16.50;59.60;;;;;;4955949;28;20059;-21
2022/01/28 02:06:40;;;;;;;2.88;2.67;;;16.50;59.60;;;;;;4956852;28;20062;-20
2022/01/28 02:09:05;;;;;;;2.53;2.33;;;16.50;59.70;;;;;;4953040;28;20098;-20
2022/01/28 02:11:31;;;;;;;2.95;2.80;;;16.50;59.60;;;;;;4956414;28;20134;-20
2022/01/28 02:13:57;;;;;;;3.10;2.90;;;16.50;59.70;;;;;;4954340;28;20047;-20
2022/01/28 02:16:22;;;;;;;2.80;2.60;;;16.50;59.70;;;;;;4956728;28;20039;-20
2022/01/28 02:18:48;;;;;;;3.10;2.80;;;16.50;59.70;;;;;;4955434;28;20059;-20
2022/01/28 02:21:16;;;;;;;2.55;2.35;;;16.50;59.70;;;;;;4956174;28;20086;-20
2022/01/28 02:23:43;;;;;;;2.42;2.33;;;16.50;59.70;;;;;;4955738;28;20079;-21
2022/01/28 02:26:14;;;;;;;2.92;2.72;;;16.50;59.60;;;;;;4955220;28;20047;-20
2022/01/28 02:28:41;;;;;;;2.63;2.53;;;16.50;59.60;;;;;;4956521;28;20079;-20
2022/01/28 02:31:07;;;;;;;2.55;2.45;;;16.50;59.60;;;;;;4955001;28;20046;-21
2022/01/28 02:33:32;;;;;;;2.22;2.13;;;16.50;59.50;;;;;;4956557;28;20119;-21
2022/01/28 02:36:06;;;;;;;2.60;2.50;;;16.50;59.70;;;;;;4955675;28;20134;-22
2022/01/28 02:38:33;;;;;;;2.60;2.40;;;16.50;59.70;;;;;;4955580;28;20138;-20
2022/01/28 02:41:00;;;;;;;2.65;2.55;;;16.50;59.70;;;;;;4955393;28;20416;-20
2022/01/28 02:45:55;;;;;;;2.15;2.05;;;16.40;59.60;;;;;;4956025;28;20047;-20
2022/01/28 02:48:25;;;;;;;3.22;2.67;;;16.50;59.70;;;;;;4955576;28;20408;-23
2022/01/28 02:51:04;;;;;;;2.75;2.55;;;16.50;59.60;;;;;;4956197;28;20046;-21
2022/01/28 02:54:12;;;;;;;2.30;2.20;;;16.50;59.60;;;;;;4955449;28;20054;-20
2022/01/28 02:58:55;;;;;;;2.33;2.22;;;16.40;59.70;;;;;;4954986;28;20065;-20
2022/01/28 03:01:21;;;;;;;2.60;2.50;;;16.50;59.50;;;;;;4956270;28;20043;-20
2022/01/28 03:03:48;;;;;;;2.50;2.40;;;16.50;59.50;;;;;;4955721;28;20062;-20
2022/01/28 03:06:14;;;;;;;2.15;2.05;;;16.60;59.30;;;;;;4955262;28;20054;-21
2022/01/28 03:08:48;;;;;;;2.20;2.10;;;16.60;59.40;;;;;;4955832;28;20043;-21
2022/01/28 03:16:22;;;;;;;2.67;2.47;;;16.50;59.60;;;;;;4959043;28;20043;-21
2022/01/28 03:18:52;;;;;;;2.60;2.50;;;16.50;59.60;;;;;;4959095;28;20047;-21
2022/01/28 03:21:24;;;;;;;2.50;2.40;;;16.50;59.60;;;;;;4958842;28;20051;-20
2022/01/28 03:23:49;;;;;;;2.22;2.13;;;16.40;59.70;;;;;;4959223;28;20050;-20
2022/01/28 03:26:16;;;;;;;2.33;2.22;;;16.40;59.70;;;;;;4956065;28;20045;-21
2022/01/28 03:28:41;;;;;;;2.45;2.35;;;16.40;59.80;;;;;;4959657;28;20130;-21
2022/01/28 03:31:07;;;;;;;2.20;2.10;;;16.40;59.80;;;;;;4958029;28;20077;-20
2022/01/28 03:33:34;;;;;;;2.20;2.10;;;16.40;59.90;;;;;;4959582;28;20066;-21
2022/01/28 03:36:02;;;;;;;2.28;2.17;;;16.40;59.90;;;;;;4958579;28;20055;-20
2022/01/28 03:38:28;;;;;;;2.33;2.22;;;16.40;59.90;;;;;;4958476;28;20757;-20
2022/01/28 03:40:56;;;;;;;2.42;2.33;;;16.40;59.80;;;;;;4959036;28;20416;-21
2022/01/28 03:43:22;;;;;;;2.40;2.30;;;16.40;59.80;;;;;;4958448;28;20484;-20
2022/01/28 03:45:47;;;;;;;2.30;2.20;;;16.40;59.80;;;;;;4958721;28;20043;-21
2022/01/28 03:48:13;;;;;;;2.63;2.42;;;16.50;59.60;;;;;;4958740;28;20054;-22
2022/01/28 03:50:38;;;;;;;2.20;2.10;;;16.50;59.70;;;;;;4958472;28;20393;-20
2022/01/28 03:53:06;;;;;;;2.55;2.40;;;16.50;59.70;;;;;;4957919;28;20086;-20
2022/01/28 03:55:32;;;;;;;2.53;2.42;;;16.40;59.80;;;;;;4958289;28;20039;-21
2022/01/28 03:57:57;;;;;;;2.50;2.40;;;16.40;59.80;;;;;;4957947;28;20044;-21
2022/01/28 04:00:28;;;;;;;2.75;2.55;;;16.40;59.70;;;;;;4958645;28;20059;-21
2022/01/28 04:03:11;;;;;;;2.35;2.25;;;16.50;59.80;;;;;;4950825;28;20051;-20
2022/01/28 04:13:31;;;;;;;2.55;2.45;;;16.50;59.80;;;;;;4956752;28;20102;-20
2022/01/28 04:18:22;;;;;;;2.20;2.10;;;16.40;60.00;;;;;;4958212;28;20051;-20
2022/01/28 04:20:48;;;;;;;2.20;2.10;;;16.40;59.90;;;;;;4958761;28;20444;-20
2022/01/28 04:23:14;;;;;;;2.80;2.65;;;16.40;60.00;;;;;;4957577;28;20086;-21
2022/01/28 04:25:40;;;;;;;2.88;2.67;;;16.40;60.00;;;;;;4957248;28;20412;-20
2022/01/28 04:28:05;;;;;;;2.35;2.25;;;16.40;60.00;;;;;;4957385;28;20047;-20
2022/01/28 04:30:31;;;;;;;2.85;2.70;;;16.40;59.90;;;;;;4958704;28;20059;-20
2022/01/28 04:32:57;;;;;;;2.35;2.25;;;16.40;59.80;;;;;;4958046;28;20555;-21
2022/01/28 04:35:22;;;;;;;2.45;2.35;;;16.40;59.90;;;;;;4957516;28;20520;-20
2022/01/28 04:40:19;;;;;;;2.92;2.75;;;16.40;60.00;;;;;;4957258;28;20098;-20
2022/01/28 04:42:59;;;;;;;2.40;2.30;;;16.40;60.00;;;;;;4957349;28;20442;-20
2022/01/28 04:48:24;;;;;;;2.80;2.60;;;16.30;60.10;;;;;;4953050;28;20054;-21
2022/01/28 04:59:20;;;;;;;2.20;2.10;;;16.40;60.00;;;;;;4969525;28;20051;-21
2022/01/28 05:26:23;;;;;;;2.55;2.45;;;16.40;59.90;;;;;;4948232;28;20054;-21
2022/01/28 05:28:48;;;;;;;2.60;2.40;;;16.40;59.90;;;;;;4951685;28;20072;-20
2022/01/28 05:31:17;;;;;;;2.97;2.78;;;16.40;59.90;;;;;;4956843;28;20035;-21
2022/01/28 05:33:43;;;;;;;2.40;2.30;;;16.40;59.90;;;;;;4956955;28;20039;-20
2022/01/28 05:36:09;;;;;;;2.40;2.30;;;16.40;60.10;;;;;;4956239;28;20440;-21
2022/01/28 05:38:35;;;;;;;2.70;2.60;;;16.40;60.10;;;;;;4956327;28;20047;-21
2022/01/28 05:41:00;;;;;;;2.97;2.78;;;16.40;60.00;;;;;;4956370;28;20043;-20
2022/01/28 05:43:26;;;;;;;2.25;2.15;;;16.40;60.10;;;;;;4956645;28;20085;-20
2022/01/28 05:45:51;;;;;;;2.42;2.25;;;16.40;60.00;;;;;;4957138;28;20393;-21
2022/01/28 05:48:19;;;;;;;2.85;2.75;;;16.40;59.90;;;;;;4956119;28;20058;-21
2022/01/28 05:50:45;;;;;;;2.33;2.22;;;16.40;60.10;;;;;;4955944;28;20416;-21
2022/01/28 05:53:10;;;;;;;2.38;2.28;;;16.40;60.10;;;;;;4956113;28;20051;-20
2022/01/28 05:55:36;;;;;;;2.30;2.10;;;16.30;60.20;;;;;;4956117;28;20496;-20
2022/01/28 05:58:02;;;;;;;2.60;2.40;;;16.30;60.10;;;;;;4956920;28;20567;-21
2022/01/28 06:00:27;;;;;;;2.20;2.10;;;16.30;60.10;;;;;;4956034;28;20051;-21
2022/01/28 06:02:53;;;;;;;2.30;2.20;;;16.30;60.10;;;;;;4955070;28;20071;-20
2022/01/28 06:05:18;;;;;;;2.28;2.08;;;16.40;60.10;;;;;;4953654;28;20050;-21
2022/01/28 06:07:44;;;;;;;2.38;2.28;;;16.30;61.00;;;;;;4955174;28;20047;-20
2022/01/28 06:10:10;;;;;;;2.83;2.72;;;16.40;60.30;;;;;;4955519;28;20417;-20
2022/01/28 06:12:40;;;;;;;2.40;2.30;;;16.30;60.50;;;;;;4956551;28;20055;-20
2022/01/28 06:15:06;;;;;;;2.80;2.60;;;16.30;61.00;;;;;;4954537;28;20042;-21
2022/01/28 06:17:32;;;;;;;2.50;2.30;;;16.40;60.80;;;;;;4955695;28;20049;-23
2022/01/28 06:19:57;;;;;;;2.40;2.30;;;16.30;61.90;;;;;;4955132;28;20133;-21
2022/01/28 06:22:23;;;;;;;4.50;3.30;;;16.40;63.50;;;;;;4955803;28;20464;-20
2022/01/28 06:24:48;;;;;;;3.58;3.30;;;16.40;63.40;;;;;;4956068;28;20042;-21
2022/01/28 06:27:14;;;;;;;3.80;3.50;;;16.40;63.20;;;;;;4956099;28;20047;-21
2022/01/28 06:29:40;;;;;;;4.03;3.22;;;16.50;62.60;;;;;;4956899;28;20174;-21
2022/01/28 06:32:06;;;;;;;4.13;3.75;;;16.40;62.70;;;;;;4949846;28;20436;-23
2022/01/28 06:34:33;;;;;;;3.75;3.45;;;16.40;62.80;;;;;;4955741;28;20062;-21
2022/01/28 06:36:59;;;;;;;3.95;3.55;;;16.40;62.80;;;;;;4949092;28;20141;-20
2022/01/28 06:39:24;;;;;;;3.95;3.65;;;16.40;62.90;;;;;;4954931;28;20074;-20
2022/01/28 06:41:50;;;;;;;4.00;3.70;;;16.40;62.50;;;;;;4945966;28;20055;-21
2022/01/28 06:44:16;;;;;;;4.07;3.70;;;16.50;62.60;;;;;;4943332;28;20054;-20
2022/01/28 06:46:41;;;;;;;5.00;3.80;;;16.40;62.30;;;;;;4940494;28;20051;-20
2022/01/28 06:49:07;;;;;;;4.43;4.05;;;16.40;62.60;;;;;;4964157;28;20051;-20
2022/01/28 06:51:34;;;;;;;5.43;3.60;;;16.50;62.40;;;;;;4953185;28;20039;-20
2022/01/28 06:54:01;;;;;;;4.28;3.97;;;16.50;62.60;;;;;;4959693;28;20047;-21
2022/01/28 06:56:26;;;;;;;4.57;3.90;;;16.50;62.50;;;;;;4958157;28;20057;-20
2022/01/28 06:58:52;;;;;;;3.95;3.65;;;16.50;62.40;;;;;;4957940;28;20107;-23
2022/01/28 07:01:18;;;;;;;4.40;3.90;;;16.50;62.40;;;;;;4959973;28;20047;-20
2022/01/28 07:03:43;;;;;;;4.07;3.65;;;16.50;63.00;;;;;;4958304;28;20195;-21
2022/01/28 07:06:09;;;;;;;4.18;3.55;;;16.40;62.50;;;;;;4958863;28;20464;-20
2022/01/28 07:08:34;;;;;;;4.43;4.05;;;16.30;62.60;;;;;;4959278;28;20047;-21
2022/01/28 07:11:01;;;;;;;4.43;4.13;;;16.30;62.80;;;;;;4959548;28;20110;-20
2022/01/28 07:13:26;;;;;;;4.28;3.97;;;16.30;63.00;;;;;;4958717;28;20043;-22
2022/01/28 07:15:52;;;;;;;5.20;3.67;;;16.30;62.80;;;;;;4958691;28;20117;-22
2022/01/28 07:18:18;;;;;;;5.60;4.25;;;16.40;63.40;;;;;;4957084;28;20504;-20
2022/01/28 07:20:43;;;;;;;16.55;10.55;;;16.40;63.40;;;;;;4960071;28;20140;-20
2022/01/28 07:23:09;;;;;;;11.98;7.35;;;16.40;63.60;;;;;;4955791;28;20043;-22
2022/01/28 07:25:34;;;;;;;17.92;7.78;;;16.40;63.60;;;;;;4958819;28;20773;-21
2022/01/28 07:28:00;;;;;;;13.20;7.40;;;16.40;64.50;;;;;;4959593;28;20070;-22
2022/01/28 07:30:26;;;;;;;12.00;6.65;;;16.40;63.80;;;;;;4958446;28;20047;-20
2022/01/28 07:32:52;;;;;;;13.27;6.63;;;16.40;63.10;;;;;;4959590;28;20053;-20
2022/01/28 07:35:18;;;;;;;11.02;7.10;;;16.40;63.40;;;;;;4956974;28;20053;-20
2022/01/28 07:37:44;;;;;;;10.23;6.50;;;16.50;63.20;;;;;;4955734;28;20161;-20
2022/01/28 07:40:10;;;;;;;15.30;7.35;;;16.40;63.40;;;;;;4956251;28;20039;-22
2022/01/28 07:42:38;;;;;;;12.13;7.50;;;16.50;63.80;;;;;;4955935;28;20043;-21
2022/01/28 07:45:05;;;;;;;12.32;7.20;;;16.50;63.80;;;;;;4958470;28;20062;-20
2022/01/28 07:47:30;;;;;;;9.85;6.40;;;16.50;63.30;;;;;;4956938;28;20051;-21
2022/01/28 07:49:56;;;;;;;9.10;6.40;;;16.50;63.20;;;;;;4958400;28;20042;-22
2022/01/28 07:52:21;;;;;;;12.73;6.97;;;16.50;63.50;;;;;;4957712;28;20520;-22
2022/01/28 07:54:49;;;;;;;11.20;6.38;;;16.50;63.50;;;;;;4957529;28;20130;-22
2022/01/28 07:57:15;;;;;;;10.05;6.25;;;16.50;63.20;;;;;;4957144;28;20051;-20
2022/01/28 07:59:41;;;;;;;9.40;6.00;;;16.50;63.30;;;;;;4958530;28;20054;-20
2022/01/28 08:02:07;;;;;;;12.07;6.60;;;16.50;63.50;;;;;;4958194;28;20122;-22
2022/01/28 08:04:33;;;;;;;12.25;5.85;;;16.40;63.40;;;;;;4956980;28;20102;-20
2022/01/28 08:06:58;;;;;;;8.15;5.65;;;16.40;63.30;;;;;;4957873;28;20899;-21
2022/01/28 08:09:24;;;;;;;14.25;6.13;;;16.50;63.30;;;;;;4956401;28;20047;-20
2022/01/28 08:11:49;;;;;;;13.57;5.95;;;16.40;63.40;;;;;;4957631;28;20416;-21
2022/01/28 08:14:15;;;;;;;10.65;5.93;;;16.50;63.20;;;;;;4958032;28;20050;-20
2022/01/28 08:16:41;;;;;;;9.95;5.72;;;16.40;63.20;;;;;;4957841;28;20146;-22
2022/01/28 08:19:06;;;;;;;10.82;5.80;;;16.40;63.10;;;;;;4958556;28;20075;-21
2022/01/28 08:21:32;;;;;;;6.82;5.93;;;16.40;63.10;;;;;;4954804;28;20126;-21
2022/01/28 08:23:57;;;;;;;9.00;5.40;;;16.40;63.20;;;;;;4957621;28;20059;-21
2022/01/28 08:26:23;;;;;;;7.45;5.55;;;16.40;63.20;;;;;;4956879;28;20505;-22
2022/01/28 08:28:49;;;;;;;7.43;5.30;;;16.40;63.00;;;;;;4957465;28;20062;-21
2022/01/28 08:31:14;;;;;;;9.70;5.68;;;16.40;63.00;;;;;;4950221;28;20456;-21
2022/01/28 08:33:40;;;;;;;6.90;4.95;;;16.50;62.70;;;;;;4958347;28;20051;-20
2022/01/28 08:36:06;;;;;;;6.43;5.05;;;16.50;62.60;;;;;;4957900;28;20508;-21
2022/01/28 08:38:37;;;;;;;8.75;5.57;;;16.40;62.60;;;;;;4956140;28;20092;-20
2022/01/28 08:41:03;;;;;;;7.88;5.03;;;16.50;62.70;;;;;;4956865;28;20071;-22
2022/01/28 08:43:29;;;;;;;7.07;5.25;;;16.50;62.60;;;;;;4957385;28;20532;-22
2022/01/28 08:45:55;;;;;;;9.43;5.25;;;16.50;62.60;;;;;;4957462;28;20051;-22
2022/01/28 08:48:20;;;;;;;6.78;4.90;;;16.40;62.50;;;;;;4956960;28;20043;-20
2022/01/28 08:50:46;;;;;;;9.10;5.07;;;16.40;62.60;;;;;;4957415;28;20584;-20
2022/01/28 08:53:11;;;;;;;10.02;5.28;;;16.40;62.40;;;;;;4956183;28;20111;-20
2022/01/28 08:55:38;;;;;;;5.63;4.47;;;16.40;63.30;;;;;;4956310;28;20133;-20
2022/01/28 08:58:04;;;;;;;9.57;5.18;;;16.40;62.50;;;;;;4957188;28;20050;-21
2022/01/28 09:00:30;;;;;;;6.80;4.80;;;16.50;62.40;;;;;;4957008;28;20047;-20
2022/01/28 09:02:55;;;;;;;8.57;4.78;;;16.50;62.30;;;;;;4955312;28;20125;-20
2022/01/28 09:05:21;;;;;;;12.18;5.38;;;16.40;62.30;;;;;;4956427;28;20046;-22
2022/01/28 09:07:48;;;;;;;5.55;4.93;;;16.50;62.30;;;;;;4956958;28;20130;-20
2022/01/28 09:10:24;;;;;;;6.95;4.22;;;16.50;62.10;;;;;;4955461;28;20441;-21
2022/01/28 09:15:35;;;;;;;9.25;4.40;;;16.50;62.00;;;;;;4956818;28;20527;-21
2022/01/28 09:18:01;;;;;;;6.15;4.10;;;16.50;62.00;;;;;;4956681;28;20126;-20
2022/01/28 09:20:28;;;;;;;6.10;4.30;;;16.50;61.80;;;;;;4956840;28;20085;-21
2022/01/28 09:22:53;;;;;;;6.00;4.10;;;16.50;62.00;;;;;;4956343;28;20043;-21
2022/01/28 09:25:19;;;;;;;4.47;4.07;;;16.50;62.00;;;;;;4956107;28;20050;-21
2022/01/28 09:27:45;;;;;;;5.28;4.72;;;16.40;62.00;;;;;;4957268;28;20047;-21
2022/01/28 09:30:11;;;;;;;6.50;3.80;;;16.50;61.70;;;;;;4957176;28;20687;-21
2022/01/28 09:32:36;;;;;;;4.32;3.90;;;16.40;61.90;;;;;;4955781;28;20055;-21
2022/01/28 09:35:02;;;;;;;5.65;4.20;;;16.50;61.80;;;;;;4956993;28;20047;-21
2022/01/28 09:37:28;;;;;;;5.75;3.80;;;16.50;61.70;;;;;;4955953;28;20212;-22
2022/01/28 09:39:54;;;;;;;7.65;4.25;;;16.50;61.60;;;;;;4956016;28;20051;-22
2022/01/28 09:42:22;;;;;;;4.72;3.40;;;16.50;61.60;;;;;;4954762;28;20046;-21
2022/01/28 09:44:48;;;;;;;4.22;3.25;;;16.50;61.60;;;;;;4952539;28;20058;-20
2022/01/28 09:47:14;;;;;;;5.25;3.70;;;16.50;61.70;;;;;;4953501;28;20500;-21
2022/01/28 09:49:40;;;;;;;7.10;3.40;;;16.50;61.50;;;;;;4953825;28;20145;-22
2022/01/28 09:52:07;;;;;;;7.57;3.63;;;16.50;61.60;;;;;;4956344;28;20067;-21
2022/01/28 09:54:33;;;;;;;4.45;3.75;;;16.50;61.40;;;;;;4955407;28;20043;-21
2022/01/28 09:56:59;;;;;;;5.32;3.35;;;16.50;61.60;;;;;;4955808;28;20113;-21
2022/01/28 09:59:25;;;;;;;3.78;3.38;;;16.50;61.50;;;;;;4955399;28;20043;-23
2022/01/28 10:01:54;;;;;;;3.65;3.30;;;16.40;61.60;;;;;;4956866;28;20138;-20
2022/01/28 10:04:19;;;;;;;4.10;3.60;;;16.40;61.50;;;;;;4954516;28;20050;-20
2022/01/28 10:06:46;;;;;;;4.25;3.60;;;16.50;61.60;;;;;;4955973;28;20051;-21
2022/01/28 10:09:12;;;;;;;4.18;3.40;;;16.50;61.50;;;;;;4956453;28;20055;-20
2022/01/28 10:11:40;;;;;;;4.05;3.65;;;16.60;61.50;;;;;;4954758;28;20062;-21
2022/01/28 10:14:11;;;;;;;3.33;3.08;;;16.50;61.30;;;;;;4954214;28;20047;-21
2022/01/28 10:16:37;;;;;;;4.95;4.45;;;16.50;61.40;;;;;;4953339;28;20043;-20
2022/01/28 10:19:06;;;;;;;5.47;4.35;;;16.50;61.70;;;;;;4955892;28;20087;-21
2022/01/28 10:21:43;;;;;;;5.72;4.70;;;16.50;61.70;;;;;;4953298;28;20053;-23
2022/01/28 10:24:09;;;;;;;5.35;4.88;;;16.50;61.60;;;;;;4955811;28;20504;-21
2022/01/28 10:26:36;;;;;;;5.93;4.68;;;16.50;61.70;;;;;;4956507;28;20043;-23
2022/01/28 10:29:06;;;;;;;4.38;3.80;;;16.50;61.70;;;;;;4957026;28;20509;-21
2022/01/28 10:32:01;;;;;;;4.15;3.85;;;16.50;61.50;;;;;;4956117;28;20079;-21
2022/01/28 10:34:33;;;;;;;4.32;3.92;;;16.50;61.40;;;;;;4955202;28;20058;-21
2022/01/28 10:37:16;;;;;;;5.68;4.05;;;16.60;61.50;;;;;;4956826;28;20085;-21
2022/01/28 10:39:47;;;;;;;5.13;4.28;;;16.60;61.20;;;;;;4955990;28;20047;-21
2022/01/28 10:42:19;;;;;;;4.28;3.97;;;16.60;61.10;;;;;;4955653;28;20102;-21
2022/01/28 10:44:59;;;;;;;4.63;4.15;;;16.60;61.10;;;;;;4955274;28;20043;-21
2022/01/28 10:47:32;;;;;;;4.32;3.97;;;16.60;61.00;;;;;;4956207;28;20058;-20
2022/01/28 10:49:57;;;;;;;4.32;3.92;;;16.70;60.90;;;;;;4955828;28;20078;-21
2022/01/28 10:52:31;;;;;;;4.70;4.30;;;16.60;61.00;;;;;;4955912;28;20058;-21
2022/01/28 10:54:57;;;;;;;3.92;3.72;;;16.60;61.00;;;;;;4946695;28;20051;-21
2022/01/28 10:57:22;;;;;;;5.05;4.22;;;16.70;61.10;;;;;;4956128;28;20035;-21
2022/01/28 10:59:48;;;;;;;5.45;4.38;;;16.60;61.00;;;;;;4954637;28;20047;-21
2022/01/28 11:02:13;;;;;;;4.38;4.05;;;16.70;60.90;;;;;;4955236;28;20047;-20
2022/01/28 11:04:39;;;;;;;4.03;3.72;;;16.70;60.90;;;;;;4953995;28;20133;-20
2022/01/28 11:07:05;;;;;;;4.15;3.85;;;16.70;60.70;;;;;;4953542;28;20047;-21
2022/01/28 11:09:31;;;;;;;5.35;4.85;;;16.70;60.80;;;;;;4951789;28;20051;-21
2022/01/28 11:11:56;;;;;;;4.70;4.25;;;16.80;60.70;;;;;;4954937;28;20079;-21
2022/01/28 11:14:22;;;;;;;4.10;3.85;;;16.80;60.50;;;;;;4950428;28;20506;-21
2022/01/28 11:16:48;;;;;;;3.92;3.60;;;16.80;60.50;;;;;;4954499;28;20432;-22
2022/01/28 11:19:15;;;;;;;4.43;4.13;;;16.70;60.70;;;;;;4952954;28;20075;-21
2022/01/28 11:21:58;;;;;;;4.55;4.15;;;16.70;60.60;;;;;;4904425;28;10001463;-20
2022/01/28 11:24:55;;;;;;;4.07;3.78;;;16.70;60.80;;;;;;4941011;28;20272;-20
2022/01/28 11:27:33;;;;;;;3.97;3.67;;;16.70;60.50;;;;;;4943033;28;20424;-20
2022/01/28 11:30:26;;;;;;;3.65;3.35;;;16.80;60.60;;;;;;4943709;28;20047;-20
2022/01/28 11:33:06;;;;;;;4.50;3.60;;;16.70;60.50;;;;;;4936826;28;20047;-20
2022/01/28 11:35:34;;;;;;;5.28;3.42;;;16.70;60.40;;;;;;4948875;28;20051;-21
2022/01/28 11:38:04;;;;;;;3.70;3.47;;;16.80;60.50;;;;;;4953722;28;20050;-22
2022/01/28 11:40:43;;;;;;;4.40;4.10;;;16.70;60.60;;;;;;4948947;28;20054;-20
2022/01/28 11:43:28;;;;;;;3.47;3.28;;;16.70;60.80;;;;;;4944667;28;20077;-21
2022/01/28 11:46:19;;;;;;;4.25;3.85;;;16.70;60.90;;;;;;4945665;28;20178;-22
2022/01/28 11:49:04;;;;;;;3.47;3.28;;;16.70;60.90;;;;;;4946608;28;20058;-20
2022/01/28 11:51:32;;;;;;;4.10;3.67;;;16.70;61.70;;;;;;4939389;28;20044;-21
2022/01/28 11:54:06;;;;;;;4.20;3.90;;;16.70;61.00;;;;;;4953951;28;20047;-22
2022/01/28 11:56:32;;;;;;;4.57;4.27;;;16.80;61.00;;;;;;4952508;28;20043;-21
2022/01/28 11:58:59;;;;;;;6.20;3.75;;;16.80;60.90;;;;;;4953892;28;20305;-20
2022/01/28 12:01:25;;;;;;;4.93;4.53;;;16.80;60.90;;;;;;4944772;28;20107;-22
2022/01/28 12:04:10;;;;;;;5.13;4.65;;;16.80;61.10;;;;;;4945981;28;20058;-20
2022/01/28 12:06:35;;;;;;;6.70;4.40;;;16.90;61.50;;;;;;4947198;28;20055;-21
2022/01/28 12:09:01;;;;;;;5.38;4.57;;;16.90;61.00;;;;;;4948314;28;20125;-20
2022/01/28 12:11:46;;;;;;;4.53;4.22;;;16.90;61.10;;;;;;4939419;28;20052;-21
2022/01/28 12:14:13;;;;;;;5.07;4.68;;;16.90;60.90;;;;;;4944742;28;20047;-21
2022/01/28 12:16:46;;;;;;;5.25;4.85;;;16.90;60.90;;;;;;4940897;28;20114;-21
2022/01/28 12:19:21;;;;;;;5.03;4.53;;;16.90;61.00;;;;;;4948886;28;20051;-21
2022/01/28 12:22:08;;;;;;;4.68;4.38;;;16.90;61.10;;;;;;4949892;28;20047;-21
2022/01/28 12:24:34;;;;;;;5.18;4.68;;;16.90;61.00;;;;;;4948851;28;20043;-20
2022/01/28 12:27:10;;;;;;;4.85;4.45;;;16.90;61.00;;;;;;4951962;28;20074;-21
2022/01/28 12:29:42;;;;;;;4.80;4.50;;;16.90;61.10;;;;;;4950267;28;20098;-20
2022/01/28 12:32:07;;;;;;;4.70;4.30;;;16.90;60.90;;;;;;4947126;28;20071;-20
2022/01/28 12:34:33;;;;;;;5.18;4.78;;;16.90;61.10;;;;;;4949523;28;20062;-23
2022/01/28 12:36:59;;;;;;;5.30;4.47;;;16.90;61.50;;;;;;4954286;28;20623;-20
2022/01/28 12:40:24;;;;;;;5.20;4.70;;;17.00;60.90;;;;;;4954117;28;20051;-21
2022/01/28 12:42:25;;;;;;;5.00;4.70;;;17.00;60.80;;;;;;4955925;28;20043;-22
2022/01/28 12:44:55;;;;;;;4.90;4.53;;;16.90;60.80;;;;;;4956167;28;20051;-21
2022/01/28 12:47:21;;;;;;;4.47;4.07;;;17.00;60.90;;;;;;4956549;28;20043;-21
2022/01/28 12:49:53;;;;;;;4.65;4.35;;;17.00;60.90;;;;;;4957472;28;20126;-21
2022/01/28 12:52:19;;;;;;;4.65;4.30;;;17.00;60.90;;;;;;4955529;28;20046;-22
2022/01/28 12:54:45;;;;;;;4.72;4.35;;;17.00;60.70;;;;;;4956976;28;20054;-22
2022/01/28 12:57:13;;;;;;;4.82;4.43;;;17.00;60.80;;;;;;4956410;28;20126;-21
2022/01/28 12:59:40;;;;;;;5.28;4.75;;;17.00;60.60;;;;;;4952476;28;20055;-20
2022/01/28 13:02:06;;;;;;;4.70;4.00;;;17.00;61.00;;;;;;4956519;28;20062;-22
2022/01/28 13:09:51;;;;;;;4.50;4.20;;;17.10;60.60;;;;;;4954563;28;20081;-21
2022/01/28 13:12:30;;;;;;;4.68;4.38;;;17.10;60.70;;;;;;4956160;28;20598;-21
2022/01/28 13:15:10;;;;;;;4.72;4.38;;;17.00;60.50;;;;;;4955004;28;20583;-20
2022/01/28 13:17:36;;;;;;;5.03;4.63;;;17.10;60.60;;;;;;4951507;28;20050;-19
2022/01/28 13:20:08;;;;;;;4.07;3.78;;;17.10;61.70;;;;;;4956577;28;20122;-21
2022/01/28 13:22:33;;;;;;;4.63;4.32;;;17.10;61.10;;;;;;4955564;28;20058;-21
2022/01/28 13:24:59;;;;;;;4.15;3.85;;;17.10;61.10;;;;;;4954795;28;20577;-21
2022/01/28 13:27:39;;;;;;;4.70;4.30;;;17.10;61.30;;;;;;4955753;28;20053;-20
2022/01/28 13:30:13;;;;;;;4.47;3.80;;;17.20;60.90;;;;;;4956446;28;20055;-21
2022/01/28 13:32:41;;;;;;;5.05;3.40;;;17.20;60.90;;;;;;4955376;28;20050;-21
2022/01/28 13:35:27;;;;;;;3.78;3.58;;;17.20;61.00;;;;;;4957283;28;20035;-21
2022/01/28 13:37:55;;;;;;;4.25;3.85;;;17.20;60.80;;;;;;4951999;28;20059;-21
2022/01/28 13:40:21;;;;;;;3.80;3.50;;;17.20;60.90;;;;;;4956689;28;20051;-22
2022/01/28 13:43:09;;;;;;;6.00;3.97;;;17.20;60.90;;;;;;4955939;28;20619;-19
2022/01/28 13:45:39;;;;;;;5.15;3.85;;;17.20;61.20;;;;;;4954685;28;20116;-21
2022/01/28 13:48:19;;;;;;;3.97;3.67;;;17.10;60.70;;;;;;4955894;28;20741;-21
2022/01/28 13:50:54;;;;;;;3.53;3.33;;;17.20;61.30;;;;;;4955758;28;20047;-20
2022/01/28 13:56:13;;;;;;;3.63;3.33;;;17.20;61.30;;;;;;4955151;28;20045;-21
2022/01/28 13:58:43;;;;;;;3.75;3.38;;;17.20;61.30;;;;;;4953993;28;20039;-20
2022/01/28 14:01:08;;;;;;;4.43;3.25;;;17.20;61.30;;;;;;4954973;28;20049;-20
2022/01/28 14:03:34;;;;;;;5.43;3.88;;;17.20;61.40;;;;;;4956013;28;20134;-20
2022/01/28 14:06:01;;;;;;;4.85;3.60;;;17.20;61.40;;;;;;4938008;28;20051;-21
2022/01/28 14:08:49;;;;;;;4.03;3.72;;;17.20;61.50;;;;;;4956339;28;20458;-22
2022/01/28 14:11:28;;;;;;;3.70;3.40;;;17.10;61.50;;;;;;4954747;28;20070;-21
2022/01/28 14:17:01;;;;;;;3.95;2.95;;;17.30;61.70;;;;;;4954075;28;20173;-22
2022/01/28 14:19:28;;;;;;;3.75;3.33;;;17.20;61.40;;;;;;4953231;28;20046;-20
2022/01/28 14:21:54;;;;;;;3.45;3.10;;;17.10;61.80;;;;;;4956859;28;20069;-20
2022/01/28 14:24:33;;;;;;;3.38;3.08;;;17.20;61.70;;;;;;4955338;28;20039;-21
2022/01/28 14:32:11;;;;;;;8.15;6.47;;;17.20;61.80;;;;;;4954569;28;20094;-21
2022/01/28 14:34:36;;;;;;;14.63;8.88;;;17.20;62.20;;;;;;4956173;28;20137;-19
2022/01/28 14:37:03;;;;;;;23.00;10.90;;;17.20;62.20;;;;;;4949480;28;20075;-21
2022/01/28 14:39:30;;;;;;;18.67;12.43;;;17.20;62.30;;;;;;4954523;28;20150;-20
2022/01/28 14:42:01;;;;;;;24.30;14.52;;;17.20;61.90;;;;;;4955618;28;20051;-19